This is the latest recevied weather packets stored in our database for station/object IW4DZV-13. If no packets are shown the sender has not sent any weather packets the latest 10 day(s).
| Time | Temp. | Humidity | Pressure | Rain* | Wind** | Luminosity | Snow |
|---|---|---|---|---|---|---|---|
| 1787559324 | 26.11° C | 60% | 1017 hPa | 0.25 mm | - | 594 W/m² | - |
| 1787558422 | 26.11° C | 62% | 1017 hPa | 0.25 mm | - | 561 W/m² | - |
| 1787557514 | 25.56° C | 65% | 1016.9 hPa | 0.25 mm | - | 519 W/m² | - |
| 1787556617 | 25° C | 65% | 1017 hPa | 0.25 mm | - | 478 W/m² | - |
| 1787555706 | 23.89° C | 67% | 1017 hPa | 0.25 mm | - | 439 W/m² | - |
| 1787554801 | 23.33° C | 68% | 1016.9 hPa | 0.25 mm | - | 394 W/m² | - |
| 1787553965 | 22.78° C | 71% | 1017 hPa | 0.25 mm | - | 348 W/m² | - |
| 1787553055 | 22.22° C | 73% | 1016.9 hPa | 0.25 mm | - | 295 W/m² | - |
| 1787552153 | 21.11° C | 73% | 1016.8 hPa | 0.25 mm | - | 241 W/m² | - |
| 1787551251 | 20.56° C | 75% | 1016.9 hPa | 0.25 mm | - | 193 W/m² | - |
| 1787550342 | 19.44° C | 83% | 1016.9 hPa | 0.25 mm | - | 97 W/m² | - |
| 1787549441 | 18.33° C | 87% | 1016.9 hPa | 0.25 mm | - | 100 W/m² | - |
| 1787548539 | 18.33° C | 87% | 1016.7 hPa | 0.25 mm | - | 28 W/m² | - |
| 1787547639 | 18.33° C | 88% | 1016.8 hPa | 0.25 mm | - | 19 W/m² | - |
| 1787546736 | 18.33° C | 88% | 1016.7 hPa | 0.25 mm | - | 12 W/m² | - |
| 1787545834 | 18.33° C | 89% | 1016.6 hPa | 0.25 mm | - | 5 W/m² | - |
| 1787544933 | 18.33° C | 89% | 1016.5 hPa | 0.25 mm | - | 0 W/m² | - |
| 1787544042 | 18.33° C | 89% | 1016.5 hPa | 0.25 mm | - | 0 W/m² | - |
| 1787543131 | 18.33° C | 89% | 1016.3 hPa | 0 mm | - | 0 W/m² | - |
| 1787542230 | 18.33° C | 90% | 1016.4 hPa | 0 mm | - | 0 W/m² | - |
| 1787541330 | 18.33° C | 90% | 1016.4 hPa | 0 mm | - | 0 W/m² | - |
| 1787540436 | 18.89° C | 90% | 1016.5 hPa | 0 mm | - | 0 W/m² | - |
| 1787539526 | 18.89° C | 90% | 1016.5 hPa | 0 mm | - | 0 W/m² | - |
| 1787538629 | 18.89° C | 90% | 1016.4 hPa | 0 mm | - | 0 W/m² | - |
| 1787537725 | 19.44° C | 90% | 1016.3 hPa | 0 mm | - | 0 W/m² | - |
* Rain since midnight (hover to see other rain measurements)
** Current wind speed in m/s (hover to see current wind gust speed)